createdAt,value
2023-04-16T00:00:36.840Z,3.19
2023-04-16T00:03:33.715Z,3.17
2023-04-16T00:06:14.017Z,3.13
2023-04-16T00:08:51.642Z,3.10
2023-04-16T00:11:28.066Z,3.07
2023-04-16T00:14:04.995Z,3.05
2023-04-16T00:16:41.510Z,3.01
2023-04-16T00:19:18.096Z,2.99
2023-04-16T00:21:54.317Z,2.97
2023-04-16T00:24:30.729Z,2.94
2023-04-16T00:27:07.908Z,2.93
2023-04-16T00:29:44.391Z,2.90
2023-04-16T00:32:20.634Z,2.89
2023-04-16T00:34:57.240Z,2.87
2023-04-16T00:37:33.509Z,2.85
2023-04-16T00:40:12.362Z,2.84
2023-04-16T00:42:48.827Z,2.84
2023-04-16T00:45:25.313Z,2.82
2023-04-16T00:48:04.224Z,2.80
2023-04-16T00:50:40.901Z,2.78
2023-04-16T00:53:18.369Z,2.76
2023-04-16T00:55:57.206Z,2.73
2023-04-16T00:58:35.038Z,2.72
2023-04-16T01:01:11.558Z,2.69
2023-04-16T01:03:52.118Z,2.68
2023-04-16T01:06:28.420Z,2.66
2023-04-16T01:09:04.889Z,2.64
2023-04-16T01:11:42.801Z,2.62
2023-04-16T01:14:19.393Z,2.59
2023-04-16T01:16:56.154Z,2.57
2023-04-16T01:19:36.529Z,2.56
2023-04-16T01:22:12.922Z,2.54
2023-04-16T01:24:49.178Z,2.52
2023-04-16T01:27:25.518Z,2.50
2023-04-16T01:30:01.907Z,2.49
2023-04-16T01:32:48.065Z,2.47
2023-04-16T01:35:24.487Z,2.46
2023-04-16T01:38:01.015Z,2.44
2023-04-16T01:40:37.777Z,2.39
2023-04-16T01:43:17.841Z,2.38
2023-04-16T01:45:58.385Z,2.36
2023-04-16T01:48:34.773Z,2.35
2023-04-16T01:51:11.858Z,2.35
2023-04-16T01:53:51.132Z,2.36
2023-04-16T01:56:27.746Z,2.36
2023-04-16T01:59:04.051Z,2.36
2023-04-16T02:01:45.232Z,2.36
2023-04-16T02:04:21.668Z,2.36
2023-04-16T02:06:58.262Z,2.36
2023-04-16T02:09:35.538Z,2.36
2023-04-16T02:12:14.408Z,2.36
2023-04-16T02:14:55.905Z,2.35
2023-04-16T02:17:34.862Z,2.33
2023-04-16T02:20:20.097Z,2.32
2023-04-16T02:23:05.493Z,2.31
2023-04-16T02:25:48.273Z,2.30
2023-04-16T02:28:24.867Z,2.29
2023-04-16T02:31:01.222Z,2.27
2023-04-16T02:33:38.507Z,2.25
2023-04-16T02:36:15.617Z,2.24
2023-04-16T02:38:51.893Z,2.25
2023-04-16T02:41:28.683Z,2.25
2023-04-16T02:44:07.580Z,2.25
2023-04-16T02:46:44.858Z,2.26
2023-04-16T02:49:21.220Z,2.25
2023-04-16T02:51:58.252Z,2.25
2023-04-16T02:54:34.685Z,2.24
2023-04-16T02:57:11.189Z,2.24
2023-04-16T02:59:47.581Z,2.23
2023-04-16T03:02:27.586Z,2.22
2023-04-16T03:05:04.229Z,2.21
2023-04-16T03:07:41.006Z,2.19
2023-04-16T03:10:17.932Z,2.18
2023-04-16T03:12:54.302Z,2.17
2023-04-16T03:15:31.171Z,2.16
2023-04-16T03:18:07.695Z,2.16
2023-04-16T03:20:43.934Z,2.13
2023-04-16T03:23:21.548Z,2.11
2023-04-16T03:25:58.019Z,2.09
2023-04-16T03:28:34.488Z,2.08
2023-04-16T03:31:11.392Z,2.08
2023-04-16T03:33:48.447Z,2.07
2023-04-16T03:36:25.503Z,2.08
2023-04-16T03:39:01.805Z,2.08
2023-04-16T03:41:38.797Z,2.08
2023-04-16T03:44:15.759Z,2.11
2023-04-16T03:46:52.210Z,2.12
2023-04-16T03:49:28.959Z,2.13
2023-04-16T03:52:06.598Z,2.14
2023-04-16T03:54:42.981Z,2.15
2023-04-16T03:57:30.950Z,2.17
2023-04-16T04:00:14.700Z,2.19
2023-04-16T04:02:50.991Z,2.22
2023-04-16T04:05:28.551Z,2.26
2023-04-16T04:08:05.364Z,2.29
2023-04-16T04:10:42.345Z,2.33
2023-04-16T04:13:20.793Z,2.37
2023-04-16T04:15:58.077Z,2.45
2023-04-16T04:18:36.360Z,2.58
2023-04-16T04:21:14.283Z,2.75
2023-04-16T04:23:50.626Z,2.92
2023-04-16T04:26:26.920Z,3.10
2023-04-16T04:29:03.380Z,3.31
2023-04-16T04:31:39.942Z,3.52
2023-04-16T04:34:17.422Z,3.82
2023-04-16T04:36:54.028Z,4.15
2023-04-16T04:39:30.698Z,4.50
2023-04-16T04:42:07.431Z,4.83
2023-04-16T04:44:44.207Z,5.37
2023-04-16T04:47:20.775Z,6.09
2023-04-16T04:49:57.247Z,6.78
2023-04-16T04:52:38.310Z,7.70
2023-04-16T04:55:18.678Z,8.82
2023-04-16T04:57:55.044Z,9.91
2023-04-16T05:00:31.291Z,10.95
2023-04-16T05:03:20.258Z,11.97
2023-04-16T05:06:00.003Z,13.00
2023-04-16T05:08:36.398Z,13.86
2023-04-16T05:11:13.640Z,14.68
2023-04-16T05:13:49.926Z,15.42
2023-04-16T05:16:26.315Z,16.16
2023-04-16T05:19:02.848Z,16.87
2023-04-16T05:21:39.893Z,17.51
2023-04-16T05:24:16.175Z,18.15
2023-04-16T05:26:53.703Z,18.80
2023-04-16T05:29:30.579Z,19.44
2023-04-16T05:32:07.110Z,19.97
2023-04-16T05:34:43.412Z,20.53
2023-04-16T05:37:19.786Z,21.11
2023-04-16T05:39:56.145Z,21.70
2023-04-16T05:42:32.447Z,22.23
2023-04-16T05:45:12.993Z,22.78
2023-04-16T05:47:50.449Z,23.16
2023-04-16T05:50:26.616Z,23.41
2023-04-16T05:53:03.552Z,23.64
2023-04-16T05:55:39.959Z,24.06
2023-04-16T05:58:16.430Z,24.39
2023-04-16T06:00:52.797Z,24.74
2023-04-16T06:03:29.458Z,25.03
2023-04-16T06:06:05.971Z,25.32
2023-04-16T06:08:42.303Z,25.54
2023-04-16T06:11:18.868Z,25.78
2023-04-16T06:13:59.752Z,25.93
2023-04-16T06:16:36.313Z,26.03
2023-04-16T06:19:12.892Z,26.27
2023-04-16T06:21:49.157Z,26.52
2023-04-16T06:24:25.804Z,26.86
2023-04-16T06:27:02.902Z,27.17
2023-04-16T06:29:41.446Z,27.46
2023-04-16T06:32:18.657Z,27.52
2023-04-16T06:34:56.457Z,27.49
2023-04-16T06:37:32.881Z,27.67
2023-04-16T06:40:13.322Z,27.79
2023-04-16T06:42:50.023Z,27.91
2023-04-16T06:45:26.414Z,28.02
2023-04-16T06:48:03.799Z,28.01
2023-04-16T06:50:40.549Z,28.06
2023-04-16T06:53:16.884Z,28.21
2023-04-16T06:55:54.589Z,28.39
2023-04-16T06:58:30.976Z,28.53
2023-04-16T07:01:07.786Z,28.67
2023-04-16T07:03:44.802Z,28.86
2023-04-16T07:06:21.627Z,29.09
2023-04-16T07:08:57.965Z,29.17
2023-04-16T07:11:36.721Z,29.20
2023-04-16T07:14:13.578Z,29.12
2023-04-16T07:16:49.985Z,29.19
2023-04-16T07:19:30.621Z,29.30
2023-04-16T07:22:07.574Z,29.38
2023-04-16T07:24:43.838Z,29.38
2023-04-16T07:27:20.189Z,29.51
2023-04-16T07:29:56.773Z,29.53
2023-04-16T07:32:33.404Z,29.29
2023-04-16T07:35:11.670Z,29.07
2023-04-16T07:37:49.145Z,29.00
2023-04-16T07:40:26.431Z,28.85
2023-04-16T07:43:02.824Z,28.62
2023-04-16T07:45:40.952Z,28.05
2023-04-16T07:48:17.963Z,27.87
2023-04-16T07:50:54.438Z,28.11
2023-04-16T07:53:30.806Z,28.27
2023-04-16T07:56:08.362Z,28.25
2023-04-16T07:58:44.828Z,28.10
2023-04-16T08:01:21.662Z,27.83
2023-04-16T08:03:58.712Z,27.68
2023-04-16T08:06:35.615Z,27.53
2023-04-16T08:09:12.632Z,27.48
2023-04-16T08:11:50.107Z,27.63
2023-04-16T08:14:26.682Z,27.77
2023-04-16T08:17:02.849Z,27.82
2023-04-16T08:19:39.324Z,27.70
2023-04-16T08:22:18.006Z,27.52
2023-04-16T08:24:54.590Z,27.29
2023-04-16T08:27:31.118Z,27.18
2023-04-16T08:30:09.569Z,27.20
2023-04-16T08:32:47.966Z,27.13
2023-04-16T08:35:28.280Z,26.83
2023-04-16T08:38:07.581Z,26.55
2023-04-16T08:40:45.151Z,26.42
2023-04-16T08:43:25.278Z,26.26
2023-04-16T08:46:02.366Z,25.81
2023-04-16T08:48:39.958Z,25.15
2023-04-16T08:51:20.826Z,24.83
2023-04-16T08:54:05.101Z,24.48
2023-04-16T08:56:44.558Z,24.02
2023-04-16T08:59:21.555Z,23.34
2023-04-16T09:02:01.467Z,22.57
2023-04-16T09:04:39.668Z,21.82
2023-04-16T09:07:18.189Z,21.33
2023-04-16T09:09:57.058Z,21.07
2023-04-16T09:12:35.601Z,20.91
2023-04-16T09:15:15.125Z,20.82
2023-04-16T09:17:51.863Z,20.81
2023-04-16T09:20:28.661Z,20.79
2023-04-16T09:23:05.091Z,20.71
2023-04-16T09:25:42.957Z,20.66
2023-04-16T09:28:47.133Z,20.56
2023-04-16T09:31:24.396Z,20.64
2023-04-16T09:34:12.393Z,20.58
2023-04-16T09:36:48.726Z,20.45
2023-04-16T09:39:27.965Z,20.39
2023-04-16T09:42:08.224Z,20.41
2023-04-16T09:44:44.937Z,20.32
2023-04-16T09:47:22.811Z,20.05
2023-04-16T09:50:03.440Z,19.77
2023-04-16T09:52:44.729Z,19.53
2023-04-16T09:55:28.291Z,19.42
2023-04-16T09:58:07.946Z,19.47
2023-04-16T10:00:45.797Z,19.46
2023-04-16T10:03:30.229Z,19.31
2023-04-16T10:06:18.222Z,19.14
2023-04-16T10:08:57.435Z,19.00
2023-04-16T10:11:34.443Z,18.80
2023-04-16T10:14:10.804Z,18.60
2023-04-16T10:16:47.688Z,18.52
2023-04-16T10:19:26.180Z,18.49
2023-04-16T10:22:02.835Z,18.52
2023-04-16T10:24:40.365Z,18.58
2023-04-16T10:27:24.041Z,18.67
2023-04-16T10:30:01.007Z,18.73
2023-04-16T10:32:39.429Z,18.59
2023-04-16T10:35:22.146Z,18.40
2023-04-16T10:38:26.081Z,18.18
2023-04-16T10:41:07.971Z,17.98
2023-04-16T10:43:51.392Z,17.87
2023-04-16T10:46:34.630Z,17.83
2023-04-16T10:49:24.446Z,17.88
2023-04-16T10:52:17.506Z,17.87
2023-04-16T10:54:56.637Z,17.87
2023-04-16T10:57:37.634Z,17.83
2023-04-16T11:00:29.454Z,17.81
2023-04-16T11:03:05.918Z,17.70
2023-04-16T11:05:52.311Z,17.60
2023-04-16T11:08:28.696Z,17.54
2023-04-16T11:11:07.967Z,17.54
2023-04-16T11:13:47.629Z,17.58
2023-04-16T11:16:25.810Z,17.56
2023-04-16T11:19:02.217Z,17.50
2023-04-16T11:21:38.967Z,17.49
2023-04-16T11:24:16.785Z,17.49
2023-04-16T11:26:55.765Z,17.51
2023-04-16T11:29:32.314Z,17.53
2023-04-16T11:32:09.364Z,17.52
2023-04-16T11:35:04.879Z,17.49
2023-04-16T11:37:43.691Z,17.49
2023-04-16T11:40:20.635Z,17.48
2023-04-16T11:42:59.289Z,17.48
2023-04-16T11:45:36.601Z,17.48
2023-04-16T11:48:13.218Z,17.45
2023-04-16T11:51:00.225Z,17.41
2023-04-16T11:53:37.766Z,17.41
2023-04-16T11:56:14.163Z,17.48
2023-04-16T11:59:11.776Z,17.58
2023-04-16T12:01:51.855Z,17.71
2023-04-16T12:04:30.511Z,17.79
2023-04-16T12:07:15.693Z,17.86
2023-04-16T12:09:52.118Z,17.92
2023-04-16T12:12:35.836Z,18.04
2023-04-16T12:15:14.054Z,18.13
2023-04-16T12:17:51.556Z,18.22
2023-04-16T12:20:27.980Z,18.27
2023-04-16T12:23:04.266Z,18.26
2023-04-16T12:25:44.072Z,18.32
2023-04-16T12:28:33.118Z,18.39
2023-04-16T12:31:10.852Z,18.48
2023-04-16T12:34:02.303Z,18.50
2023-04-16T12:36:39.053Z,18.48
2023-04-16T12:39:17.429Z,18.44
2023-04-16T12:41:53.993Z,18.39
2023-04-16T12:44:30.846Z,18.36
2023-04-16T12:47:07.603Z,18.31
2023-04-16T12:49:45.820Z,18.25
2023-04-16T12:52:23.734Z,18.24
2023-04-16T12:55:04.729Z,18.20
2023-04-16T12:57:41.108Z,18.17
2023-04-16T13:00:20.649Z,18.15
2023-04-16T13:02:57.027Z,18.15
2023-04-16T13:05:34.041Z,18.08
2023-04-16T13:08:11.175Z,17.99
2023-04-16T13:10:47.474Z,17.91
2023-04-16T13:13:23.833Z,17.84
2023-04-16T13:16:06.684Z,17.80
2023-04-16T13:18:43.153Z,17.82
2023-04-16T13:21:19.691Z,17.88
2023-04-16T13:23:57.284Z,17.89
2023-04-16T13:26:33.647Z,17.90
2023-04-16T13:29:10.375Z,17.88
2023-04-16T13:31:47.782Z,17.82
2023-04-16T13:34:24.390Z,17.75
2023-04-16T13:37:00.952Z,17.73
2023-04-16T13:39:37.913Z,17.69
2023-04-16T13:42:14.198Z,17.67
2023-04-16T13:44:53.274Z,17.64
2023-04-16T17:18:32.657Z,13.24
2023-04-16T17:21:15.849Z,13.13
2023-04-16T17:23:52.959Z,13.03
2023-04-16T17:26:29.333Z,12.92
2023-04-16T17:29:05.935Z,12.82
2023-04-16T17:31:42.813Z,12.71
2023-04-16T17:34:19.679Z,12.60
2023-04-16T17:36:56.020Z,12.49
2023-04-16T17:39:32.727Z,12.39
2023-04-16T17:42:09.646Z,12.30
2023-04-16T17:44:46.138Z,12.22
2023-04-16T17:47:22.751Z,12.13
2023-04-16T17:50:00.617Z,12.06
2023-04-16T17:52:37.806Z,11.98
2023-04-16T17:55:15.519Z,11.90
2023-04-16T17:57:51.857Z,11.83
2023-04-16T18:00:28.541Z,11.76
2023-04-16T18:03:05.188Z,11.71
2023-04-16T18:05:42.710Z,11.65
2023-04-16T18:08:19.368Z,11.60
2023-04-16T18:10:56.882Z,11.55
2023-04-16T18:13:33.234Z,11.50
2023-04-16T18:16:17.532Z,11.43
2023-04-16T18:18:53.911Z,11.37
2023-04-16T18:21:31.729Z,11.32
2023-04-16T18:24:11.586Z,11.26
2023-04-16T18:26:48.464Z,11.21
2023-04-16T18:29:25.480Z,11.15
2023-04-16T18:32:04.422Z,11.11
2023-04-16T18:34:41.742Z,11.06
2023-04-16T18:37:18.638Z,11.01
2023-04-16T18:39:57.786Z,10.96
2023-04-16T18:42:34.611Z,10.92
2023-04-16T18:45:19.598Z,10.86
2023-04-16T18:47:59.025Z,10.79
2023-04-16T18:50:38.061Z,10.73
2023-04-16T18:53:15.433Z,10.66
2023-04-16T18:55:55.616Z,10.58
2023-04-16T18:58:32.491Z,10.51
2023-04-16T19:01:13.666Z,10.44
2023-04-16T19:03:51.426Z,10.36
2023-04-16T19:06:29.355Z,10.29
2023-04-16T19:09:06.336Z,10.21
2023-04-16T19:11:43.251Z,10.15
2023-04-16T19:14:20.842Z,10.07
2023-04-16T19:16:57.689Z,10.00
2023-04-16T19:19:35.710Z,9.93
2023-04-16T19:22:14.009Z,9.87
2023-04-16T19:24:50.795Z,9.80
2023-04-16T19:27:29.825Z,9.74
2023-04-16T19:30:07.914Z,9.67
2023-04-16T19:32:44.327Z,9.60
2023-04-16T19:35:21.340Z,9.54
2023-04-16T19:38:01.886Z,9.47
2023-04-16T19:40:38.600Z,9.41
2023-04-16T19:43:15.161Z,9.35
2023-04-16T19:45:53.813Z,9.29
2023-04-16T19:48:31.946Z,9.23
2023-04-16T19:51:09.072Z,9.18
2023-04-16T19:53:45.647Z,9.13
2023-04-16T19:56:22.107Z,9.10
2023-04-16T19:59:02.172Z,9.05
2023-04-16T20:01:38.727Z,9.00
2023-04-16T20:04:15.184Z,8.94
2023-04-16T20:06:51.769Z,8.89
2023-04-16T20:09:30.058Z,8.85
2023-04-16T20:12:07.705Z,8.82
2023-04-16T20:14:44.151Z,8.78
2023-04-16T20:17:20.559Z,8.77
2023-04-16T20:20:00.901Z,8.75
2023-04-16T20:22:37.303Z,8.74
2023-04-16T20:25:19.073Z,8.73
2023-04-16T20:27:54.158Z,8.71
2023-04-16T20:30:31.162Z,8.69
2023-04-16T20:33:07.670Z,8.65
2023-04-16T20:35:44.181Z,8.61
2023-04-16T20:38:24.036Z,8.58
2023-04-16T20:41:12.494Z,8.53
2023-04-16T20:43:50.350Z,8.49
2023-04-16T20:46:30.278Z,8.45
2023-04-16T20:49:08.394Z,8.40
2023-04-16T20:51:44.892Z,8.33
2023-04-16T20:54:21.756Z,8.28
2023-04-16T20:56:58.335Z,8.23
2023-04-16T20:59:34.703Z,8.17
2023-04-16T21:02:11.330Z,8.11
2023-04-16T21:04:48.151Z,8.06
2023-04-16T21:07:24.496Z,8.01
2023-04-16T21:10:00.793Z,7.96
2023-04-16T21:12:37.757Z,7.91
2023-04-16T21:15:16.057Z,7.88
2023-04-16T21:17:52.337Z,7.83
2023-04-16T21:20:30.797Z,7.79
2023-04-16T21:23:07.728Z,7.74
2023-04-16T21:25:43.991Z,7.70
2023-04-16T21:28:20.541Z,7.65
2023-04-16T21:30:58.382Z,7.62
2023-04-16T21:33:34.985Z,7.58
2023-04-16T21:36:13.799Z,7.56
2023-04-16T21:38:50.112Z,7.55
2023-04-16T21:41:26.632Z,7.53
2023-04-16T21:44:03.074Z,7.51
2023-04-16T21:46:39.436Z,7.48
2023-04-16T21:49:17.659Z,7.43
2023-04-16T21:51:59.298Z,7.39
2023-04-16T21:54:35.681Z,7.33
2023-04-16T21:57:12.353Z,7.29
2023-04-16T21:59:48.556Z,7.23
2023-04-16T22:02:24.891Z,7.18
2023-04-16T22:05:01.975Z,7.14
2023-04-16T22:07:39.185Z,7.12
2023-04-16T22:10:16.726Z,7.09
2023-04-16T22:12:53.928Z,7.08
2023-04-16T22:15:31.876Z,7.10
2023-04-16T22:18:09.747Z,7.11
2023-04-16T22:20:47.390Z,7.15
2023-04-16T22:23:24.101Z,7.21
2023-04-16T22:26:02.693Z,7.24
2023-04-16T22:28:39.085Z,7.27
2023-04-16T22:31:15.550Z,7.29
2023-04-16T22:33:52.017Z,7.31
2023-04-16T22:36:28.490Z,7.32
2023-04-16T22:39:08.640Z,7.34
2023-04-16T22:41:45.612Z,7.38
2023-04-16T22:44:24.205Z,7.42
2023-04-16T22:47:01.904Z,7.46
2023-04-16T22:49:38.955Z,7.49
2023-04-16T22:52:15.168Z,7.51
2023-04-16T22:54:51.489Z,7.51
2023-04-16T22:57:28.017Z,7.51
2023-04-16T23:00:06.589Z,7.49
2023-04-16T23:02:43.177Z,7.47
2023-04-16T23:05:19.953Z,7.44
2023-04-16T23:07:59.092Z,7.42
2023-04-16T23:10:35.678Z,7.40
2023-04-16T23:13:12.059Z,7.37
2023-04-16T23:15:48.571Z,7.34
2023-04-16T23:18:24.982Z,7.31
2023-04-16T23:21:01.459Z,7.28
2023-04-16T23:23:42.470Z,7.26
2023-04-16T23:26:18.752Z,7.25
2023-04-16T23:28:55.046Z,7.22
2023-04-16T23:31:31.383Z,7.20
2023-04-16T23:34:07.811Z,7.17
2023-04-16T23:36:44.349Z,7.14
2023-04-16T23:39:20.803Z,7.11
2023-04-16T23:41:57.388Z,7.09
2023-04-16T23:44:34.877Z,7.06
2023-04-16T23:47:11.302Z,7.03
2023-04-16T23:49:47.623Z,7.01
2023-04-16T23:52:24.089Z,6.99
2023-04-16T23:55:00.553Z,6.97
2023-04-16T23:57:36.798Z,6.94
